Time,TemperatureF,DewpointF,PressureIn,WindDirection,WindDirectionDegrees,WindSpeedMPH,WindSpeedGustMPH,Humidity,HourlyPrecipIn,Conditions,Clouds,dailyrainin,SoftwareType,DateUTC
2013-08-08 00:01:00,61.9,54.9,30.02,North,0,0.0,0.0,78,0.00,,,0.00,WUHU21623XXSP,2013-08-08 05:01:00,
2013-08-08 00:06:00,61.9,55.3,30.02,North,0,0.0,0.0,79,0.00,,,0.00,WUHU21623XXSP,2013-08-08 05:06:00,
2013-08-08 00:11:00,61.7,55.1,30.02,North,0,0.0,0.0,79,0.00,,,0.00,WUHU21623XXSP,2013-08-08 05:11:00,
2013-08-08 00:16:00,61.7,55.1,30.02,North,0,0.0,0.0,79,0.00,,,0.00,WUHU21623XXSP,2013-08-08 05:16:00,
2013-08-08 00:21:00,61.7,55.1,30.02,North,0,0.0,0.0,79,0.00,,,0.00,WUHU21623XXSP,2013-08-08 05:21:00,
2013-08-08 00:26:00,61.5,55.0,30.03,North,0,0.0,0.0,79,0.00,,,0.00,WUHU21623XXSP,2013-08-08 05:26:00,
2013-08-08 00:31:00,61.5,55.0,30.02,North,0,0.0,0.0,79,0.00,,,0.00,WUHU21623XXSP,2013-08-08 05:31:00,
2013-08-08 00:36:00,61.5,55.0,30.03,North,0,0.0,0.0,79,0.00,,,0.00,WUHU21623XXSP,2013-08-08 05:36:00,
2013-08-08 00:41:00,61.3,54.8,30.03,North,0,0.0,0.0,79,0.00,,,0.00,WUHU21623XXSP,2013-08-08 05:41:00,
2013-08-08 00:46:00,61.3,55.2,30.03,North,0,0.0,0.0,80,0.00,,,0.00,WUHU21623XXSP,2013-08-08 05:46:00,
2013-08-08 00:51:00,61.2,55.0,30.02,North,0,0.0,0.0,80,0.00,,,0.00,WUHU21623XXSP,2013-08-08 05:51:00,
2013-08-08 00:56:00,61.0,55.2,30.02,North,0,0.0,0.0,81,0.00,,,0.00,WUHU21623XXSP,2013-08-08 05:56:00,
2013-08-08 01:01:00,61.0,55.2,30.03,North,0,0.0,0.0,81,0.00,,,0.00,WUHU21623XXSP,2013-08-08 06:01:00,
2013-08-08 01:06:00,61.0,55.2,30.03,North,0,0.0,0.0,81,0.00,,,0.00,WUHU21623XXSP,2013-08-08 06:06:00,
2013-08-08 01:11:00,61.0,55.2,30.02,North,0,0.0,0.0,81,0.00,,,0.00,WUHU21623XXSP,2013-08-08 06:11:00,
2013-08-08 01:16:00,61.0,55.2,30.02,North,0,0.0,0.0,81,0.00,,,0.00,WUHU21623XXSP,2013-08-08 06:16:00,
2013-08-08 01:21:00,61.0,55.2,30.02,North,0,0.0,0.0,81,0.00,,,0.00,WUHU21623XXSP,2013-08-08 06:21:00,
2013-08-08 01:26:00,60.6,54.5,30.02,North,0,0.0,0.0,80,0.00,,,0.00,WUHU21623XXSP,2013-08-08 06:26:00,
2013-08-08 01:31:00,60.6,54.5,30.02,North,0,0.0,0.0,80,0.00,,,0.00,WUHU21623XXSP,2013-08-08 06:31:00,
2013-08-08 01:36:00,60.6,54.8,30.02,North,0,0.0,0.0,81,0.00,,,0.00,WUHU21623XXSP,2013-08-08 06:36:00,
2013-08-08 01:41:00,60.6,54.8,30.01,North,0,0.0,0.0,81,0.00,,,0.00,WUHU21623XXSP,2013-08-08 06:41:00,
2013-08-08 01:46:00,60.6,54.8,30.02,North,0,0.0,0.0,81,0.00,,,0.00,WUHU21623XXSP,2013-08-08 06:46:00,
2013-08-08 01:51:00,60.4,54.6,30.02,North,0,0.0,0.0,81,0.00,,,0.00,WUHU21623XXSP,2013-08-08 06:51:00,
2013-08-08 01:57:00,60.4,54.6,30.02,North,0,0.0,0.0,81,0.00,,,0.00,WUHU21623XXSP,2013-08-08 06:57:00,
2013-08-08 02:02:00,60.4,54.6,30.02,North,0,0.0,0.0,81,0.00,,,0.00,WUHU21623XXSP,2013-08-08 07:02:00,
2013-08-08 02:14:00,60.4,54.6,30.02,North,0,0.0,0.0,81,0.00,,,0.00,WUHU21623XXSP,2013-08-08 07:14:00,
2013-08-08 02:19:00,60.1,54.6,30.02,North,0,0.0,0.0,82,0.00,,,0.00,WUHU21623XXSP,2013-08-08 07:19:00,
2013-08-08 02:24:00,60.1,54.6,30.02,North,0,0.0,0.0,82,0.00,,,0.00,WUHU21623XXSP,2013-08-08 07:24:00,
2013-08-08 02:29:00,59.7,54.2,30.01,North,0,0.0,0.0,82,0.00,,,0.00,WUHU21623XXSP,2013-08-08 07:29:00,
2013-08-08 02:34:00,59.7,54.2,30.02,North,0,0.0,0.0,82,0.00,,,0.00,WUHU21623XXSP,2013-08-08 07:34:00,
2013-08-08 02:39:00,59.7,54.2,30.01,North,0,0.0,0.0,82,0.00,,,0.00,WUHU21623XXSP,2013-08-08 07:39:00,
2013-08-08 02:44:00,59.7,54.2,30.02,North,0,0.0,0.0,82,0.00,,,0.00,WUHU21623XXSP,2013-08-08 07:44:00,
2013-08-08 02:49:00,59.7,54.2,30.02,North,0,0.0,0.0,82,0.00,,,0.00,WUHU21623XXSP,2013-08-08 07:49:00,
2013-08-08 02:54:00,59.5,54.1,30.02,North,0,0.0,0.0,82,0.00,,,0.00,WUHU21623XXSP,2013-08-08 07:54:00,
2013-08-08 02:59:00,59.5,54.4,30.02,North,0,0.0,0.0,83,0.00,,,0.00,WUHU21623XXSP,2013-08-08 07:59:00,
2013-08-08 03:04:00,59.2,54.0,30.02,North,0,0.0,0.0,83,0.00,,,0.00,WUHU21623XXSP,2013-08-08 08:04:00,
2013-08-08 03:09:00,59.2,54.0,30.02,North,0,0.0,0.0,83,0.00,,,0.00,WUHU21623XXSP,2013-08-08 08:09:00,
2013-08-08 03:14:00,59.0,53.9,30.01,North,0,0.0,0.0,83,0.00,,,0.00,WUHU21623XXSP,2013-08-08 08:14:00,
2013-08-08 03:19:00,58.8,53.7,30.01,North,0,0.0,0.0,83,0.00,,,0.00,WUHU21623XXSP,2013-08-08 08:19:00,
2013-08-08 03:24:00,58.8,53.7,30.01,North,0,0.0,0.0,83,0.00,,,0.00,WUHU21623XXSP,2013-08-08 08:24:00,
2013-08-08 03:29:00,58.6,53.5,30.01,North,0,0.0,0.0,83,0.00,,,0.00,WUHU21623XXSP,2013-08-08 08:29:00,
2013-08-08 03:34:00,58.6,53.5,30.01,North,0,0.0,0.0,83,0.00,,,0.00,WUHU21623XXSP,2013-08-08 08:34:00,
2013-08-08 03:39:00,58.5,53.3,30.01,North,0,0.0,0.0,83,0.00,,,0.00,WUHU21623XXSP,2013-08-08 08:39:00,
2013-08-08 03:44:00,58.5,53.3,30.01,North,0,0.0,0.0,83,0.00,,,0.00,WUHU21623XXSP,2013-08-08 08:44:00,
2013-08-08 03:49:00,58.3,53.1,30.01,North,0,0.0,0.0,83,0.00,,,0.00,WUHU21623XXSP,2013-08-08 08:49:00,
2013-08-08 03:54:00,58.3,53.1,30.01,North,0,0.0,0.0,83,0.00,,,0.00,WUHU21623XXSP,2013-08-08 08:54:00,
2013-08-08 03:59:00,58.3,53.5,30.01,North,0,0.0,0.0,84,0.00,,,0.00,WUHU21623XXSP,2013-08-08 08:59:00,
2013-08-08 04:04:00,58.3,53.5,30.01,North,0,0.0,0.0,84,0.00,,,0.00,WUHU21623XXSP,2013-08-08 09:04:00,
2013-08-08 04:09:00,58.1,53.6,30.01,North,0,0.0,0.0,85,0.00,,,0.00,WUHU21623XXSP,2013-08-08 09:09:00,
2013-08-08 04:14:00,57.9,53.4,30.01,North,0,0.0,0.0,85,0.00,,,0.00,WUHU21623XXSP,2013-08-08 09:14:00,
2013-08-08 04:19:00,57.9,53.4,30.01,North,0,0.0,0.0,85,0.00,,,0.00,WUHU21623XXSP,2013-08-08 09:19:00,
2013-08-08 04:24:00,57.9,53.4,30.01,North,0,0.0,0.0,85,0.00,,,0.00,WUHU21623XXSP,2013-08-08 09:24:00,
2013-08-08 04:29:00,57.9,53.4,30.00,North,0,0.0,0.0,85,0.00,,,0.00,WUHU21623XXSP,2013-08-08 09:29:00,
2013-08-08 04:34:00,57.9,53.4,29.99,North,0,0.0,0.0,85,0.00,,,0.00,WUHU21623XXSP,2013-08-08 09:34:00,
2013-08-08 04:39:00,57.9,53.4,30.00,North,0,0.0,0.0,85,0.00,,,0.00,WUHU21623XXSP,2013-08-08 09:39:00,
2013-08-08 04:44:00,57.7,53.2,30.00,North,0,0.0,0.0,85,0.00,,,0.00,WUHU21623XXSP,2013-08-08 09:44:00,
2013-08-08 04:49:00,57.7,53.2,29.99,North,0,0.0,0.0,85,0.00,,,0.00,WUHU21623XXSP,2013-08-08 09:49:00,
2013-08-08 04:54:00,57.7,53.6,30.00,North,0,0.0,0.0,86,0.00,,,0.00,WUHU21623XXSP,2013-08-08 09:54:00,
2013-08-08 04:59:00,57.7,53.6,29.99,North,0,0.0,0.0,86,0.00,,,0.00,WUHU21623XXSP,2013-08-08 09:59:00,
2013-08-08 05:04:00,57.7,53.6,30.00,North,0,0.0,0.0,86,0.00,,,0.00,WUHU21623XXSP,2013-08-08 10:04:00,
2013-08-08 05:09:00,57.7,53.6,29.99,North,0,0.0,0.0,86,0.00,,,0.00,WUHU21623XXSP,2013-08-08 10:09:00,
2013-08-08 05:14:00,57.6,53.4,29.99,North,0,0.0,0.0,86,0.00,,,0.00,WUHU21623XXSP,2013-08-08 10:14:00,
2013-08-08 05:19:00,57.7,53.6,29.99,North,0,0.0,0.0,86,0.00,,,0.00,WUHU21623XXSP,2013-08-08 10:19:00,
2013-08-08 05:24:00,57.7,53.6,29.99,North,0,0.0,0.0,86,0.00,,,0.00,WUHU21623XXSP,2013-08-08 10:24:00,
2013-08-08 05:29:00,57.7,53.6,29.99,North,0,0.0,0.0,86,0.00,,,0.00,WUHU21623XXSP,2013-08-08 10:29:00,
2013-08-08 05:34:00,57.7,53.6,29.99,North,0,0.0,0.0,86,0.00,,,0.00,WUHU21623XXSP,2013-08-08 10:34:00,
2013-08-08 05:39:00,57.7,53.6,29.99,North,0,0.0,0.0,86,0.00,,,0.00,WUHU21623XXSP,2013-08-08 10:39:00,
2013-08-08 05:44:00,57.7,53.6,29.99,North,0,0.0,0.0,86,0.00,,,0.00,WUHU21623XXSP,2013-08-08 10:44:00,
2013-08-08 05:49:00,57.7,53.6,29.98,North,0,0.0,0.0,86,0.00,,,0.00,WUHU21623XXSP,2013-08-08 10:49:00,
2013-08-08 05:55:00,57.7,53.6,29.98,North,0,0.0,0.0,86,0.00,,,0.00,WUHU21623XXSP,2013-08-08 10:55:00,
2013-08-08 06:00:00,57.9,53.7,29.99,North,0,0.0,0.0,86,0.00,,,0.00,WUHU21623XXSP,2013-08-08 11:00:00,
2013-08-08 06:05:00,57.9,53.7,29.99,North,0,0.0,0.0,86,0.00,,,0.00,WUHU21623XXSP,2013-08-08 11:05:00,
2013-08-08 06:10:00,57.7,53.6,29.99,North,0,0.0,0.0,86,0.00,,,0.00,WUHU21623XXSP,2013-08-08 11:10:00,
2013-08-08 06:15:00,57.7,53.6,30.00,North,0,0.0,0.0,86,0.00,,,0.00,WUHU21623XXSP,2013-08-08 11:15:00,
2013-08-08 06:20:00,57.7,53.6,29.99,North,0,0.0,0.0,86,0.00,,,0.00,WUHU21623XXSP,2013-08-08 11:20:00,
2013-08-08 06:25:00,57.7,53.6,29.99,North,0,0.0,0.0,86,0.00,,,0.00,WUHU21623XXSP,2013-08-08 11:25:00,
2013-08-08 06:30:00,57.7,53.6,29.99,North,0,0.0,0.0,86,0.00,,,0.00,WUHU21623XXSP,2013-08-08 11:30:00,
2013-08-08 06:35:00,57.9,53.7,29.99,North,0,0.0,0.0,86,0.00,,,0.00,WUHU21623XXSP,2013-08-08 11:35:00,
2013-08-08 06:40:00,57.9,53.7,29.99,North,0,0.0,0.0,86,0.00,,,0.00,WUHU21623XXSP,2013-08-08 11:40:00,
2013-08-08 06:45:00,58.1,53.9,29.99,North,0,0.0,0.0,86,0.00,,,0.00,WUHU21623XXSP,2013-08-08 11:45:00,
2013-08-08 06:50:00,58.5,54.3,30.00,North,0,0.0,0.0,86,0.00,,,0.00,WUHU21623XXSP,2013-08-08 11:50:00,
2013-08-08 06:55:00,58.8,54.6,30.00,North,0,0.0,0.0,86,0.00,,,0.00,WUHU21623XXSP,2013-08-08 11:55:00,
2013-08-08 07:00:00,59.2,55.0,30.01,North,0,0.0,0.0,86,0.00,,,0.00,WUHU21623XXSP,2013-08-08 12:00:00,
2013-08-08 07:05:00,59.4,55.2,30.01,North,0,0.0,0.0,86,0.00,,,0.00,WUHU21623XXSP,2013-08-08 12:05:00,
2013-08-08 07:10:00,59.7,55.5,30.01,North,0,0.0,0.0,86,0.00,,,0.00,WUHU21623XXSP,2013-08-08 12:10:00,
2013-08-08 07:15:00,59.9,55.7,30.01,North,0,0.0,0.0,86,0.00,,,0.00,WUHU21623XXSP,2013-08-08 12:15:00,
2013-08-08 07:20:00,60.1,55.9,30.01,North,0,0.0,0.0,86,0.00,,,0.00,WUHU21623XXSP,2013-08-08 12:20:00,
2013-08-08 07:25:00,60.3,56.1,30.01,North,0,0.0,0.0,86,0.00,,,0.00,WUHU21623XXSP,2013-08-08 12:25:00,
2013-08-08 07:30:00,60.4,56.3,30.01,North,0,0.0,0.0,86,0.00,,,0.00,WUHU21623XXSP,2013-08-08 12:30:00,
2013-08-08 07:35:00,60.6,56.4,30.02,North,0,0.0,0.0,86,0.00,,,0.00,WUHU21623XXSP,2013-08-08 12:35:00,
2013-08-08 07:40:00,61.0,56.8,30.02,North,0,0.0,0.0,86,0.00,,,0.00,WUHU21623XXSP,2013-08-08 12:40:00,
2013-08-08 07:45:00,61.3,57.1,30.02,North,0,0.0,0.0,86,0.00,,,0.00,WUHU21623XXSP,2013-08-08 12:45:00,
2013-08-08 07:50:00,61.3,57.1,30.02,North,0,0.0,0.0,86,0.00,,,0.00,WUHU21623XXSP,2013-08-08 12:50:00,
2013-08-08 07:55:00,61.5,57.0,30.03,North,0,0.0,0.0,85,0.00,,,0.00,WUHU21623XXSP,2013-08-08 12:55:00,
2013-08-08 08:00:00,61.5,57.0,30.03,North,0,0.0,0.0,85,0.00,,,0.00,WUHU21623XXSP,2013-08-08 13:00:00,
2013-08-08 08:05:00,61.7,57.1,30.04,North,0,0.0,0.0,85,0.00,,,0.00,WUHU21623XXSP,2013-08-08 13:05:00,
2013-08-08 08:10:00,61.9,57.3,30.04,North,0,0.0,0.0,85,0.00,,,0.00,WUHU21623XXSP,2013-08-08 13:10:00,
2013-08-08 08:15:00,61.9,57.0,30.05,North,0,0.0,0.0,84,0.00,,,0.00,WUHU21623XXSP,2013-08-08 13:15:00,
2013-08-08 08:20:00,62.1,57.1,30.05,North,0,0.0,0.0,84,0.00,,,0.00,WUHU21623XXSP,2013-08-08 13:20:00,
2013-08-08 08:25:00,62.4,57.1,30.05,North,0,0.0,0.0,83,0.00,,,0.00,WUHU21623XXSP,2013-08-08 13:25:00,
2013-08-08 08:30:00,62.4,57.1,30.06,North,0,0.0,0.0,83,0.00,,,0.00,WUHU21623XXSP,2013-08-08 13:30:00,
2013-08-08 08:35:00,62.4,57.1,30.05,North,0,0.0,0.0,83,0.00,,,0.00,WUHU21623XXSP,2013-08-08 13:35:00,
2013-08-08 08:40:00,62.4,57.1,30.05,North,0,0.0,0.0,83,0.00,,,0.00,WUHU21623XXSP,2013-08-08 13:40:00,
2013-08-08 08:45:00,62.6,57.3,30.05,North,0,0.0,0.0,83,0.00,,,0.00,WUHU21623XXSP,2013-08-08 13:45:00,
2013-08-08 08:50:00,62.6,57.0,30.05,North,0,0.0,0.0,82,0.00,,,0.00,WUHU21623XXSP,2013-08-08 13:50:00,
2013-08-08 08:55:00,62.6,57.0,30.05,North,0,0.0,0.0,82,0.00,,,0.00,WUHU21623XXSP,2013-08-08 13:55:00,
2013-08-08 09:00:00,62.8,57.2,30.05,North,0,0.0,0.0,82,0.00,,,0.00,WUHU21623XXSP,2013-08-08 14:00:00,
2013-08-08 09:05:00,63.0,57.3,30.05,North,0,0.0,0.0,82,0.00,,,0.00,WUHU21623XXSP,2013-08-08 14:05:00,
2013-08-08 09:10:00,62.8,56.8,30.06,North,0,0.0,0.0,81,0.00,,,0.00,WUHU21623XXSP,2013-08-08 14:10:00,
2013-08-08 09:15:00,62.6,57.0,30.05,North,0,0.0,0.0,82,0.00,,,0.00,WUHU21623XXSP,2013-08-08 14:15:00,
2013-08-08 09:20:00,62.8,57.2,30.05,North,0,0.0,0.0,82,0.00,,,0.00,WUHU21623XXSP,2013-08-08 14:20:00,
2013-08-08 09:25:00,62.6,57.0,30.06,North,0,0.0,0.0,82,0.00,,,0.00,WUHU21623XXSP,2013-08-08 14:25:00,
2013-08-08 09:30:00,62.4,57.1,30.06,North,0,0.0,0.0,83,0.00,,,0.00,WUHU21623XXSP,2013-08-08 14:30:00,
2013-08-08 09:35:00,62.6,57.3,30.05,North,0,0.0,0.0,83,0.00,,,0.00,WUHU21623XXSP,2013-08-08 14:35:00,
2013-08-08 09:40:00,62.8,57.5,30.05,North,0,0.0,0.0,83,0.00,,,0.00,WUHU21623XXSP,2013-08-08 14:40:00,
2013-08-08 09:45:00,62.8,57.5,30.05,North,0,0.0,0.0,83,0.00,,,0.00,WUHU21623XXSP,2013-08-08 14:45:00,
2013-08-08 09:50:00,62.8,57.5,30.05,North,0,0.0,0.0,83,0.00,,,0.00,WUHU21623XXSP,2013-08-08 14:50:00,
2013-08-08 09:55:00,63.0,57.7,30.05,North,0,0.0,0.0,83,0.00,,,0.00,WUHU21623XXSP,2013-08-08 14:55:00,
2013-08-08 10:00:00,63.0,57.7,30.05,North,0,0.0,0.0,83,0.00,,,0.00,WUHU21623XXSP,2013-08-08 15:00:00,
2013-08-08 10:05:00,63.3,58.0,30.05,North,0,0.0,0.0,83,0.00,,,0.00,WUHU21623XXSP,2013-08-08 15:05:00,
2013-08-08 10:10:00,63.7,58.4,30.05,North,0,0.0,0.0,83,0.00,,,0.00,WUHU21623XXSP,2013-08-08 15:10:00,
2013-08-08 10:15:00,64.0,58.8,30.05,North,0,0.0,0.0,83,0.00,,,0.00,WUHU21623XXSP,2013-08-08 15:15:00,
2013-08-08 10:20:00,64.4,58.8,30.05,North,0,0.0,0.0,82,0.00,,,0.00,WUHU21623XXSP,2013-08-08 15:20:00,
2013-08-08 10:26:00,64.6,58.9,30.04,North,0,0.0,0.0,82,0.00,,,0.00,WUHU21623XXSP,2013-08-08 15:26:00,
2013-08-08 10:31:00,64.9,59.0,30.04,North,0,0.0,0.0,81,0.00,,,0.00,WUHU21623XXSP,2013-08-08 15:31:00,
2013-08-08 10:36:00,65.1,58.8,30.05,North,0,0.0,0.0,80,0.00,,,0.00,WUHU21623XXSP,2013-08-08 15:36:00,
2013-08-08 10:41:00,65.5,59.2,30.05,North,0,0.0,0.0,80,0.00,,,0.00,WUHU21623XXSP,2013-08-08 15:41:00,
2013-08-08 10:46:00,65.7,59.4,30.05,North,0,0.0,0.0,80,0.00,,,0.00,WUHU21623XXSP,2013-08-08 15:46:00,
2013-08-08 10:51:00,66.0,59.7,30.06,North,0,0.0,0.0,80,0.00,,,0.00,WUHU21623XXSP,2013-08-08 15:51:00,
2013-08-08 10:56:00,66.4,59.9,30.06,North,0,0.0,0.0,80,0.00,,,0.00,WUHU21623XXSP,2013-08-08 15:56:00,
2013-08-08 11:01:00,66.6,59.9,30.06,North,0,0.0,0.0,79,0.00,,,0.00,WUHU21623XXSP,2013-08-08 16:01:00,
2013-08-08 11:06:00,66.7,59.7,30.06,North,0,0.0,0.0,78,0.00,,,0.00,WUHU21623XXSP,2013-08-08 16:06:00,
2013-08-08 11:11:00,66.9,59.5,30.06,North,0,0.0,0.0,77,0.00,,,0.00,WUHU21623XXSP,2013-08-08 16:11:00,
2013-08-08 11:16:00,67.3,59.8,30.06,North,0,0.0,0.0,77,0.00,,,0.00,WUHU21623XXSP,2013-08-08 16:16:00,
2013-08-08 11:21:00,67.8,60.0,30.05,North,0,0.0,0.0,76,0.00,,,0.00,WUHU21623XXSP,2013-08-08 16:21:00,
2013-08-08 11:26:00,68.2,60.0,30.05,North,0,0.0,0.0,75,0.00,,,0.00,WUHU21623XXSP,2013-08-08 16:26:00,
2013-08-08 11:31:00,68.0,59.4,30.06,North,0,0.0,0.0,74,0.00,,,0.00,WUHU21623XXSP,2013-08-08 16:31:00,
2013-08-08 11:36:00,67.8,59.3,30.05,North,0,0.0,0.0,74,0.00,,,0.00,WUHU21623XXSP,2013-08-08 16:36:00,
2013-08-08 11:41:00,68.2,59.6,30.05,North,0,0.0,0.0,74,0.00,,,0.00,WUHU21623XXSP,2013-08-08 16:41:00,
2013-08-08 11:46:00,68.4,59.8,30.05,North,0,0.0,0.0,74,0.00,,,0.00,WUHU21623XXSP,2013-08-08 16:46:00,
2013-08-08 11:51:00,68.4,59.4,30.06,North,0,0.0,0.0,73,0.00,,,0.00,WUHU21623XXSP,2013-08-08 16:51:00,
2013-08-08 11:56:00,68.2,59.2,30.05,North,0,0.0,0.0,73,0.00,,,0.00,WUHU21623XXSP,2013-08-08 16:56:00,
2013-08-08 12:01:00,68.2,59.6,30.05,North,0,0.0,0.0,74,0.00,,,0.00,WUHU21623XXSP,2013-08-08 17:01:00,
2013-08-08 12:06:00,68.5,60.3,30.05,North,0,0.0,0.0,75,0.00,,,0.00,WUHU21623XXSP,2013-08-08 17:06:00,
2013-08-08 12:11:00,68.7,60.1,30.05,North,0,0.0,0.0,74,0.00,,,0.00,WUHU21623XXSP,2013-08-08 17:11:00,
2013-08-08 12:16:00,69.1,60.4,30.05,North,0,0.0,0.0,74,0.00,,,0.00,WUHU21623XXSP,2013-08-08 17:16:00,
2013-08-08 12:21:00,69.1,60.0,30.04,North,0,0.0,0.0,73,0.00,,,0.00,WUHU21623XXSP,2013-08-08 17:21:00,
2013-08-08 12:26:00,69.1,59.6,30.04,North,0,0.0,0.0,72,0.00,,,0.00,WUHU21623XXSP,2013-08-08 17:26:00,
2013-08-08 12:31:00,69.4,60.0,30.04,North,0,0.0,0.0,72,0.00,,,0.00,WUHU21623XXSP,2013-08-08 17:31:00,
2013-08-08 12:36:00,69.6,60.1,30.04,North,0,0.0,0.0,72,0.00,,,0.00,WUHU21623XXSP,2013-08-08 17:36:00,
2013-08-08 12:41:00,69.6,60.1,30.04,North,0,0.0,0.0,72,0.00,,,0.00,WUHU21623XXSP,2013-08-08 17:41:00,
2013-08-08 12:46:00,70.3,60.5,30.04,North,0,0.0,0.0,71,0.00,,,0.00,WUHU21623XXSP,2013-08-08 17:46:00,
2013-08-08 12:51:00,70.3,60.1,30.05,North,0,0.0,0.0,70,0.00,,,0.00,WUHU21623XXSP,2013-08-08 17:51:00,
2013-08-08 12:56:00,70.5,60.3,30.05,North,0,0.0,0.0,70,0.00,,,0.00,WUHU21623XXSP,2013-08-08 17:56:00,
2013-08-08 13:01:00,70.7,59.6,30.05,North,0,0.0,0.0,68,0.00,,,0.00,WUHU21623XXSP,2013-08-08 18:01:00,
2013-08-08 13:06:00,71.1,60.4,30.05,North,0,0.0,0.0,69,0.00,,,0.00,WUHU21623XXSP,2013-08-08 18:06:00,
2013-08-08 13:11:00,71.4,60.3,30.04,North,0,0.0,0.0,68,0.00,,,0.00,WUHU21623XXSP,2013-08-08 18:11:00,
2013-08-08 13:16:00,71.8,60.6,30.04,North,0,0.0,0.0,68,0.00,,,0.00,WUHU21623XXSP,2013-08-08 18:16:00,
2013-08-08 13:21:00,71.8,60.2,30.04,North,0,0.0,0.0,67,0.00,,,0.00,WUHU21623XXSP,2013-08-08 18:21:00,
2013-08-08 13:26:00,71.8,60.6,30.04,North,0,0.0,0.0,68,0.00,,,0.00,WUHU21623XXSP,2013-08-08 18:26:00,
2013-08-08 13:31:00,71.8,60.2,30.04,North,0,0.0,0.0,67,0.00,,,0.00,WUHU21623XXSP,2013-08-08 18:31:00,
2013-08-08 13:36:00,72.0,60.8,30.04,North,0,0.0,0.0,68,0.00,,,0.00,WUHU21623XXSP,2013-08-08 18:36:00,
2013-08-08 13:41:00,72.1,60.6,30.04,North,0,0.0,0.0,67,0.00,,,0.00,WUHU21623XXSP,2013-08-08 18:41:00,
2013-08-08 13:46:00,72.3,60.3,30.04,North,0,0.0,0.0,66,0.00,,,0.00,WUHU21623XXSP,2013-08-08 18:46:00,
2013-08-08 13:51:00,72.3,60.3,30.04,North,0,0.0,0.0,66,0.00,,,0.00,WUHU21623XXSP,2013-08-08 18:51:00,
2013-08-08 13:56:00,72.5,60.5,30.04,North,0,0.0,0.0,66,0.00,,,0.00,WUHU21623XXSP,2013-08-08 18:56:00,
2013-08-08 14:01:00,73.0,61.0,30.04,North,0,0.0,0.0,66,0.00,,,0.00,WUHU21623XXSP,2013-08-08 19:01:00,
2013-08-08 14:06:00,73.2,61.2,30.04,North,0,0.0,0.0,66,0.00,,,0.00,WUHU21623XXSP,2013-08-08 19:06:00,
2013-08-08 14:11:00,73.6,61.1,30.04,North,0,0.0,0.0,65,0.00,,,0.00,WUHU21623XXSP,2013-08-08 19:11:00,
2013-08-08 14:16:00,73.9,60.9,30.04,North,0,0.0,0.0,64,0.00,,,0.00,WUHU21623XXSP,2013-08-08 19:16:00,
2013-08-08 14:21:00,73.9,61.4,30.04,North,0,0.0,0.0,65,0.00,,,0.00,WUHU21623XXSP,2013-08-08 19:21:00,
2013-08-08 14:26:00,73.9,60.5,30.04,North,0,0.0,0.0,63,0.00,,,0.00,WUHU21623XXSP,2013-08-08 19:26:00,
2013-08-08 14:31:00,74.1,61.1,30.03,North,0,0.0,0.0,64,0.00,,,0.00,WUHU21623XXSP,2013-08-08 19:31:00,
2013-08-08 14:36:00,74.3,61.3,30.03,North,0,0.0,0.0,64,0.00,,,0.00,WUHU21623XXSP,2013-08-08 19:36:00,
2013-08-08 14:41:00,74.3,60.9,30.03,North,0,0.0,0.0,63,0.00,,,0.00,WUHU21623XXSP,2013-08-08 19:41:00,
2013-08-08 14:46:00,74.1,60.7,30.03,North,0,0.0,0.0,63,0.00,,,0.00,WUHU21623XXSP,2013-08-08 19:46:00,
2013-08-08 14:51:00,74.1,61.1,30.03,North,0,0.0,0.0,64,0.00,,,0.00,WUHU21623XXSP,2013-08-08 19:51:00,
2013-08-08 14:56:00,74.1,60.7,30.03,North,0,0.0,0.0,63,0.00,,,0.00,WUHU21623XXSP,2013-08-08 19:56:00,
2013-08-08 15:02:00,74.1,61.1,30.02,North,0,0.0,0.0,64,0.00,,,0.00,WUHU21623XXSP,2013-08-08 20:02:00,
2013-08-08 15:07:00,74.5,61.5,30.02,North,0,0.0,0.0,64,0.00,,,0.00,WUHU21623XXSP,2013-08-08 20:07:00,
2013-08-08 15:12:00,75.4,61.5,30.02,North,0,0.0,0.0,62,0.00,,,0.00,WUHU21623XXSP,2013-08-08 20:12:00,
2013-08-08 15:17:00,75.7,60.9,30.02,North,0,0.0,0.0,60,0.00,,,0.00,WUHU21623XXSP,2013-08-08 20:17:00,
2013-08-08 15:22:00,75.9,61.1,30.02,North,0,0.0,0.0,60,0.00,,,0.00,WUHU21623XXSP,2013-08-08 20:22:00,
2013-08-08 15:27:00,75.9,60.1,30.01,North,0,0.0,0.0,58,0.00,,,0.00,WUHU21623XXSP,2013-08-08 20:27:00,
2013-08-08 15:32:00,75.6,60.3,30.01,North,0,0.0,0.0,59,0.00,,,0.00,WUHU21623XXSP,2013-08-08 20:32:00,
2013-08-08 15:37:00,75.4,60.1,30.01,North,0,0.0,0.0,59,0.00,,,0.00,WUHU21623XXSP,2013-08-08 20:37:00,
2013-08-08 15:42:00,75.9,60.1,30.01,North,0,0.0,0.0,58,0.00,,,0.00,WUHU21623XXSP,2013-08-08 20:42:00,
2013-08-08 15:47:00,76.3,60.9,30.01,North,0,0.0,0.0,59,0.00,,,0.00,WUHU21623XXSP,2013-08-08 20:47:00,
2013-08-08 15:52:00,76.5,61.6,30.01,North,0,0.0,0.0,60,0.00,,,0.00,WUHU21623XXSP,2013-08-08 20:52:00,
2013-08-08 15:57:00,76.8,61.4,30.01,North,0,0.0,0.0,59,0.00,,,0.00,WUHU21623XXSP,2013-08-08 20:57:00,
2013-08-08 16:02:00,76.8,61.6,30.01,North,0,0.0,0.0,59,0.00,,,0.00,WUHU21623XXSP,2013-08-08 21:02:00,
2013-08-08 16:07:00,76.6,61.4,30.01,North,0,0.0,0.0,59,0.00,,,0.00,WUHU21623XXSP,2013-08-08 21:07:00,
2013-08-08 16:12:00,76.4,60.8,30.00,North,0,0.0,0.0,58,0.00,,,0.00,WUHU21623XXSP,2013-08-08 21:12:00,
2013-08-08 16:17:00,76.3,61.1,30.00,North,0,0.0,0.0,59,0.00,,,0.00,WUHU21623XXSP,2013-08-08 21:17:00,
2013-08-08 16:22:00,75.8,60.7,30.00,North,0,0.0,0.0,59,0.00,,,0.00,WUHU21623XXSP,2013-08-08 21:22:00,
2013-08-08 16:27:00,75.3,59.7,30.00,North,0,0.0,0.0,58,0.00,,,0.00,WUHU21623XXSP,2013-08-08 21:27:00,
2013-08-08 16:32:00,75.0,59.4,30.00,North,0,0.0,0.0,58,0.00,,,0.00,WUHU21623XXSP,2013-08-08 21:32:00,
2013-08-08 16:38:00,74.6,59.5,30.00,North,0,0.0,0.0,59,0.00,,,0.00,WUHU21623XXSP,2013-08-08 21:38:00,
2013-08-08 16:43:00,74.2,59.1,30.00,North,0,0.0,0.0,59,0.00,,,0.00,WUHU21623XXSP,2013-08-08 21:43:00,
2013-08-08 16:48:00,73.6,59.0,30.00,North,0,0.0,0.0,60,0.00,,,0.00,WUHU21623XXSP,2013-08-08 21:48:00,
2013-08-08 16:54:00,73.3,58.7,30.00,North,0,0.0,0.0,60,0.00,,,0.00,WUHU21623XXSP,2013-08-08 21:54:00,
2013-08-08 16:59:00,72.8,58.8,30.00,North,0,0.0,0.0,61,0.00,,,0.00,WUHU21623XXSP,2013-08-08 21:59:00,
2013-08-08 17:04:00,72.5,58.5,30.00,North,0,0.0,0.0,61,0.00,,,0.00,WUHU21623XXSP,2013-08-08 22:04:00,
2013-08-08 17:09:00,72.2,58.6,30.00,North,0,0.0,0.0,62,0.00,,,0.00,WUHU21623XXSP,2013-08-08 22:09:00,
2013-08-08 17:14:00,71.8,58.3,30.01,North,0,0.0,0.0,62,0.00,,,0.00,WUHU21623XXSP,2013-08-08 22:14:00,
2013-08-08 17:19:00,71.4,58.3,30.01,North,0,0.0,0.0,63,0.00,,,0.00,WUHU21623XXSP,2013-08-08 22:19:00,
2013-08-08 17:24:00,71.1,58.5,30.01,North,0,0.0,0.0,64,0.00,,,0.00,WUHU21623XXSP,2013-08-08 22:24:00,
2013-08-08 17:29:00,70.6,58.8,30.01,North,0,0.0,0.0,66,0.00,,,0.00,WUHU21623XXSP,2013-08-08 22:29:00,
2013-08-08 17:34:00,70.2,59.3,30.01,North,0,0.0,0.0,68,0.00,,,0.00,WUHU21623XXSP,2013-08-08 22:34:00,
2013-08-08 17:39:00,69.9,59.0,30.01,North,0,0.0,0.0,68,0.00,,,0.00,WUHU21623XXSP,2013-08-08 22:39:00,
2013-08-08 17:44:00,69.5,59.1,30.01,North,0,0.0,0.0,69,0.00,,,0.00,WUHU21623XXSP,2013-08-08 22:44:00,
2013-08-08 17:49:00,69.5,59.0,30.01,North,0,0.0,0.0,69,0.00,,,0.00,WUHU21623XXSP,2013-08-08 22:49:00,
2013-08-08 17:54:00,69.4,59.0,30.01,North,0,0.0,0.0,69,0.00,,,0.00,WUHU21623XXSP,2013-08-08 22:54:00,
2013-08-08 17:59:00,68.8,58.4,30.01,North,0,0.0,0.0,69,0.00,,,0.00,WUHU21623XXSP,2013-08-08 22:59:00,
2013-08-08 18:04:00,68.7,58.3,30.01,North,0,0.0,0.0,69,0.00,,,0.00,WUHU21623XXSP,2013-08-08 23:04:00,
2013-08-08 18:09:00,69.5,59.1,30.01,North,0,0.0,0.0,69,0.00,,,0.00,WUHU21623XXSP,2013-08-08 23:09:00,
2013-08-08 18:14:00,69.5,58.6,30.00,North,0,0.0,0.0,68,0.00,,,0.00,WUHU21623XXSP,2013-08-08 23:14:00,
2013-08-08 18:19:00,69.9,59.5,30.00,North,0,0.0,0.0,69,0.00,,,0.00,WUHU21623XXSP,2013-08-08 23:19:00,
2013-08-08 18:24:00,70.8,59.9,30.00,North,0,0.0,0.0,68,0.00,,,0.00,WUHU21623XXSP,2013-08-08 23:24:00,
2013-08-08 18:29:00,70.9,59.2,30.00,North,0,0.0,0.0,66,0.00,,,0.00,WUHU21623XXSP,2013-08-08 23:29:00,
2013-08-08 18:34:00,70.9,59.2,30.00,North,0,0.0,0.0,66,0.00,,,0.00,WUHU21623XXSP,2013-08-08 23:34:00,
2013-08-08 18:39:00,70.7,58.9,29.99,North,0,0.0,0.0,66,0.00,,,0.00,WUHU21623XXSP,2013-08-08 23:39:00,
2013-08-08 18:45:00,71.5,59.8,29.99,North,0,0.0,0.0,66,0.00,,,0.00,WUHU21623XXSP,2013-08-08 23:45:00,
2013-08-08 18:51:00,72.2,60.0,29.99,North,0,0.0,0.0,65,0.00,,,0.00,WUHU21623XXSP,2013-08-08 23:51:00,
2013-08-08 18:56:00,72.6,60.4,29.99,North,0,0.0,0.0,65,0.00,,,0.00,WUHU21623XXSP,2013-08-08 23:56:00,
2013-08-08 19:01:00,73.3,60.6,29.99,North,0,0.0,0.0,64,0.00,,,0.00,WUHU21623XXSP,2013-08-09 00:01:00,
2013-08-08 19:06:00,73.3,60.2,29.99,North,0,0.0,0.0,63,0.00,,,0.00,WUHU21623XXSP,2013-08-09 00:06:00,
2013-08-08 19:11:00,73.1,60.4,29.99,North,0,0.0,0.0,64,0.00,,,0.00,WUHU21623XXSP,2013-08-09 00:11:00,
2013-08-08 19:16:00,72.6,60.0,29.98,North,0,0.0,0.0,64,0.00,,,0.00,WUHU21623XXSP,2013-08-09 00:16:00,
2013-08-08 19:22:00,72.0,59.7,29.98,North,0,0.0,0.0,65,0.00,,,0.00,WUHU21623XXSP,2013-08-09 00:22:00,
2013-08-08 19:27:00,70.7,58.5,29.98,North,0,0.0,0.0,65,0.00,,,0.00,WUHU21623XXSP,2013-08-09 00:27:00,
2013-08-08 19:32:00,70.2,58.5,29.99,North,0,0.0,0.0,66,0.00,,,0.00,WUHU21623XXSP,2013-08-09 00:32:00,
2013-08-08 19:37:00,70.6,59.3,29.99,North,0,0.0,0.0,67,0.00,,,0.00,WUHU21623XXSP,2013-08-09 00:37:00,
2013-08-08 19:42:00,69.9,58.7,29.99,North,0,0.0,0.0,67,0.00,,,0.00,WUHU21623XXSP,2013-08-09 00:42:00,
2013-08-08 19:47:00,69.3,58.8,29.99,North,0,0.0,0.0,69,0.00,,,0.00,WUHU21623XXSP,2013-08-09 00:47:00,
2013-08-08 19:52:00,68.5,58.5,29.99,North,0,0.0,0.0,70,0.00,,,0.00,WUHU21623XXSP,2013-08-09 00:52:00,
2013-08-08 19:57:00,68.1,58.5,29.99,North,0,0.0,0.0,71,0.00,,,0.00,WUHU21623XXSP,2013-08-09 00:57:00,
2013-08-08 20:02:00,67.9,58.7,29.98,North,0,0.0,0.0,72,0.00,,,0.00,WUHU21623XXSP,2013-08-09 01:02:00,
2013-08-08 20:08:00,67.6,58.8,29.99,North,0,0.0,0.0,73,0.00,,,0.00,WUHU21623XXSP,2013-08-09 01:08:00,
2013-08-08 20:13:00,67.5,59.0,29.98,North,0,0.0,0.0,74,0.00,,,0.00,WUHU21623XXSP,2013-08-09 01:13:00,
2013-08-08 20:18:00,66.9,58.5,29.98,North,0,0.0,0.0,74,0.00,,,0.00,WUHU21623XXSP,2013-08-09 01:18:00,
2013-08-08 20:23:00,66.8,58.7,29.98,North,0,0.0,0.0,75,0.00,,,0.00,WUHU21623XXSP,2013-08-09 01:23:00,
2013-08-08 20:28:00,66.5,58.9,29.98,North,0,0.0,0.0,76,0.00,,,0.00,WUHU21623XXSP,2013-08-09 01:28:00,
2013-08-08 20:33:00,66.3,59.0,29.98,North,0,0.0,0.0,77,0.00,,,0.00,WUHU21623XXSP,2013-08-09 01:33:00,
2013-08-08 20:38:00,66.1,58.4,29.98,North,0,0.0,0.0,76,0.00,,,0.00,WUHU21623XXSP,2013-08-09 01:38:00,
2013-08-08 20:43:00,66.0,58.7,29.98,North,0,0.0,0.0,77,0.00,,,0.00,WUHU21623XXSP,2013-08-09 01:43:00,
2013-08-08 20:48:00,65.7,58.4,29.98,North,0,0.0,0.0,77,0.00,,,0.00,WUHU21623XXSP,2013-08-09 01:48:00,
2013-08-08 20:53:00,65.8,58.9,29.98,North,0,0.0,0.0,78,0.00,,,0.00,WUHU21623XXSP,2013-08-09 01:53:00,
2013-08-08 20:59:00,65.8,58.8,29.98,North,0,0.0,0.0,78,0.00,,,0.00,WUHU21623XXSP,2013-08-09 01:59:00,
2013-08-08 21:04:00,65.6,59.0,29.99,North,0,0.0,0.0,79,0.00,,,0.00,WUHU21623XXSP,2013-08-09 02:04:00,
2013-08-08 21:09:00,65.4,58.8,29.99,North,0,0.0,0.0,79,0.00,,,0.00,WUHU21623XXSP,2013-08-09 02:09:00,
2013-08-08 21:14:00,65.3,58.7,30.00,North,0,0.0,0.0,79,0.00,,,0.00,WUHU21623XXSP,2013-08-09 02:14:00,
2013-08-08 21:19:00,65.3,59.1,30.00,North,0,0.0,0.0,80,0.00,,,0.00,WUHU21623XXSP,2013-08-09 02:19:00,
2013-08-08 21:25:00,64.9,58.7,30.00,North,0,0.0,0.0,80,0.00,,,0.00,WUHU21623XXSP,2013-08-09 02:25:00,
2013-08-08 21:30:00,65.1,58.8,30.00,North,0,0.0,0.0,80,0.00,,,0.00,WUHU21623XXSP,2013-08-09 02:30:00,
2013-08-08 21:35:00,65.0,59.1,30.00,North,0,0.0,0.0,81,0.00,,,0.00,WUHU21623XXSP,2013-08-09 02:35:00,
2013-08-08 21:40:00,65.2,59.2,30.00,North,0,0.0,0.0,81,0.00,,,0.00,WUHU21623XXSP,2013-08-09 02:40:00,
2013-08-08 21:46:00,65.2,59.3,30.00,North,0,0.0,0.0,81,0.00,,,0.00,WUHU21623XXSP,2013-08-09 02:46:00,
2013-08-08 21:51:00,65.0,59.1,30.00,North,0,0.0,0.0,81,0.00,,,0.00,WUHU21623XXSP,2013-08-09 02:51:00,
2013-08-08 21:56:00,64.9,59.3,30.00,North,0,0.0,0.0,82,0.00,,,0.00,WUHU21623XXSP,2013-08-09 02:56:00,
2013-08-08 22:01:00,64.9,59.3,29.99,North,0,0.0,0.0,82,0.00,,,0.00,WUHU21623XXSP,2013-08-09 03:01:00,
2013-08-08 22:06:00,64.8,59.5,29.99,North,0,0.0,0.0,83,0.00,,,0.00,WUHU21623XXSP,2013-08-09 03:06:00,
2013-08-08 22:11:00,64.6,59.3,29.99,North,0,0.0,0.0,83,0.00,,,0.00,WUHU21623XXSP,2013-08-09 03:11:00,
2013-08-08 22:17:00,64.2,58.9,29.99,North,0,0.0,0.0,83,0.00,,,0.00,WUHU21623XXSP,2013-08-09 03:17:00,
2013-08-08 22:22:00,64.2,58.9,29.98,North,0,0.0,0.0,83,0.00,,,0.00,WUHU21623XXSP,2013-08-09 03:22:00,
2013-08-08 22:27:00,64.2,59.3,29.99,North,0,0.0,0.0,84,0.00,,,0.00,WUHU21623XXSP,2013-08-09 03:27:00,
2013-08-08 22:32:00,64.0,59.1,29.99,North,0,0.0,0.0,84,0.00,,,0.00,WUHU21623XXSP,2013-08-09 03:32:00,
2013-08-08 22:37:00,63.7,58.7,29.99,North,0,0.0,0.0,84,0.00,,,0.00,WUHU21623XXSP,2013-08-09 03:37:00,
2013-08-08 22:42:00,63.7,58.7,29.99,North,0,0.0,0.0,84,0.00,,,0.00,WUHU21623XXSP,2013-08-09 03:42:00,
2013-08-08 22:47:00,63.5,58.6,29.99,North,0,0.0,0.0,84,0.00,,,0.00,WUHU21623XXSP,2013-08-09 03:47:00,
2013-08-08 22:52:00,63.5,58.9,29.99,North,0,0.0,0.0,85,0.00,,,0.00,WUHU21623XXSP,2013-08-09 03:52:00,
2013-08-08 22:57:00,63.5,58.9,29.99,North,0,0.0,0.0,85,0.00,,,0.00,WUHU21623XXSP,2013-08-09 03:57:00,
2013-08-08 23:01:00,63.5,58.9,29.99,North,0,0.0,0.0,85,0.00,,,0.00,WUHU21623XXSP,2013-08-09 04:01:00,
2013-08-08 23:07:00,63.3,58.7,29.99,North,0,0.0,0.0,85,0.00,,,0.00,WUHU21623XXSP,2013-08-09 04:07:00,
2013-08-08 23:12:00,63.3,58.7,29.99,North,0,0.0,0.0,85,0.00,,,0.00,WUHU21623XXSP,2013-08-09 04:12:00,
2013-08-08 23:17:00,63.1,58.5,29.99,North,0,0.0,0.0,85,0.00,,,0.00,WUHU21623XXSP,2013-08-09 04:17:00,
2013-08-08 23:22:00,63.1,58.5,29.99,North,0,0.0,0.0,85,0.00,,,0.00,WUHU21623XXSP,2013-08-09 04:22:00,
2013-08-08 23:27:00,63.1,58.9,29.99,North,0,0.0,0.0,86,0.00,,,0.00,WUHU21623XXSP,2013-08-09 04:27:00,
2013-08-08 23:32:00,63.1,58.9,29.99,North,0,0.0,0.0,86,0.00,,,0.00,WUHU21623XXSP,2013-08-09 04:32:00,
2013-08-08 23:37:00,63.1,58.9,29.99,North,0,0.0,0.0,86,0.00,,,0.00,WUHU21623XXSP,2013-08-09 04:37:00,
2013-08-08 23:42:00,63.1,58.9,30.00,North,0,0.0,0.0,86,0.00,,,0.00,WUHU21623XXSP,2013-08-09 04:42:00,
2013-08-08 23:47:00,63.1,58.9,30.00,North,0,0.0,0.0,86,0.00,,,0.00,WUHU21623XXSP,2013-08-09 04:47:00,
2013-08-08 23:52:00,63.1,58.9,30.00,North,0,0.0,0.0,86,0.00,,,0.00,WUHU21623XXSP,2013-08-09 04:52:00,
2013-08-08 23:57:00,63.0,58.7,30.01,North,0,0.0,0.0,86,0.00,,,0.00,WUHU21623XXSP,2013-08-09 04:57:00,